sensor_id;sensor_type;location;lat;lon;timestamp;P1;durP1;ratioP1;P2;durP2;ratioP2
9675;SDS011;4876;42.656;23.292;2023-04-03T00:01:20;4.37;;;2.10;;
9675;SDS011;4876;42.656;23.292;2023-04-03T00:03:47;4.27;;;2.30;;
9675;SDS011;4876;42.656;23.292;2023-04-03T00:06:13;1.93;;;1.80;;
9675;SDS011;4876;42.656;23.292;2023-04-03T00:08:40;2.73;;;1.90;;
9675;SDS011;4876;42.656;23.292;2023-04-03T00:11:08;6.70;;;1.80;;
9675;SDS011;4876;42.656;23.292;2023-04-03T00:13:35;4.83;;;2.57;;
9675;SDS011;4876;42.656;23.292;2023-04-03T00:16:03;2.43;;;1.63;;
9675;SDS011;4876;42.656;23.292;2023-04-03T00:18:31;3.97;;;2.03;;
9675;SDS011;4876;42.656;23.292;2023-04-03T00:20:58;2.53;;;1.80;;
9675;SDS011;4876;42.656;23.292;2023-04-03T00:23:25;3.57;;;1.93;;
9675;SDS011;4876;42.656;23.292;2023-04-03T00:25:52;2.50;;;1.60;;
9675;SDS011;4876;42.656;23.292;2023-04-03T00:28:19;2.47;;;1.70;;
9675;SDS011;4876;42.656;23.292;2023-04-03T00:30:48;2.50;;;1.73;;
9675;SDS011;4876;42.656;23.292;2023-04-03T00:33:15;3.27;;;1.47;;
9675;SDS011;4876;42.656;23.292;2023-04-03T00:35:43;2.27;;;1.77;;
9675;SDS011;4876;42.656;23.292;2023-04-03T00:38:10;2.90;;;2.50;;
9675;SDS011;4876;42.656;23.292;2023-04-03T00:40:38;5.53;;;3.10;;
9675;SDS011;4876;42.656;23.292;2023-04-03T00:43:10;3.67;;;2.30;;
9675;SDS011;4876;42.656;23.292;2023-04-03T00:45:39;2.47;;;1.87;;
9675;SDS011;4876;42.656;23.292;2023-04-03T00:48:09;2.90;;;1.90;;
9675;SDS011;4876;42.656;23.292;2023-04-03T00:50:40;3.23;;;2.20;;
9675;SDS011;4876;42.656;23.292;2023-04-03T00:53:11;3.10;;;2.30;;
9675;SDS011;4876;42.656;23.292;2023-04-03T00:55:42;3.20;;;2.10;;
9675;SDS011;4876;42.656;23.292;2023-04-03T00:58:09;2.77;;;2.10;;
9675;SDS011;4876;42.656;23.292;2023-04-03T01:00:38;3.83;;;2.03;;
9675;SDS011;4876;42.656;23.292;2023-04-03T01:03:08;2.90;;;2.07;;
9675;SDS011;4876;42.656;23.292;2023-04-03T01:05:35;2.83;;;2.17;;
9675;SDS011;4876;42.656;23.292;2023-04-03T01:08:02;2.87;;;2.20;;
9675;SDS011;4876;42.656;23.292;2023-04-03T01:10:30;5.37;;;2.60;;
9675;SDS011;4876;42.656;23.292;2023-04-03T01:12:57;3.10;;;2.20;;
9675;SDS011;4876;42.656;23.292;2023-04-03T01:15:26;4.13;;;2.67;;
9675;SDS011;4876;42.656;23.292;2023-04-03T01:17:55;3.93;;;2.53;;
9675;SDS011;4876;42.656;23.292;2023-04-03T01:20:33;3.77;;;2.80;;
9675;SDS011;4876;42.656;23.292;2023-04-03T01:23:20;3.70;;;2.60;;
9675;SDS011;4876;42.656;23.292;2023-04-03T01:25:54;7.80;;;3.63;;
9675;SDS011;4876;42.656;23.292;2023-04-03T01:28:23;6.37;;;4.30;;
9675;SDS011;4876;42.656;23.292;2023-04-03T01:30:53;5.37;;;3.20;;
9675;SDS011;4876;42.656;23.292;2023-04-03T01:33:28;4.57;;;3.27;;
9675;SDS011;4876;42.656;23.292;2023-04-03T01:35:55;6.73;;;3.10;;
9675;SDS011;4876;42.656;23.292;2023-04-03T01:38:22;5.63;;;2.90;;
9675;SDS011;4876;42.656;23.292;2023-04-03T01:40:49;5.17;;;2.63;;
9675;SDS011;4876;42.656;23.292;2023-04-03T01:43:16;3.20;;;2.40;;
9675;SDS011;4876;42.656;23.292;2023-04-03T01:45:42;4.90;;;2.50;;
9675;SDS011;4876;42.656;23.292;2023-04-03T01:48:09;3.80;;;2.60;;
9675;SDS011;4876;42.656;23.292;2023-04-03T01:50:37;3.90;;;2.13;;
9675;SDS011;4876;42.656;23.292;2023-04-03T01:53:06;2.60;;;2.10;;
9675;SDS011;4876;42.656;23.292;2023-04-03T01:55:33;3.93;;;3.03;;
9675;SDS011;4876;42.656;23.292;2023-04-03T01:58:00;6.13;;;2.47;;
9675;SDS011;4876;42.656;23.292;2023-04-03T02:00:27;4.53;;;2.63;;
9675;SDS011;4876;42.656;23.292;2023-04-03T02:02:54;5.37;;;2.60;;
9675;SDS011;4876;42.656;23.292;2023-04-03T02:05:20;2.23;;;1.90;;
9675;SDS011;4876;42.656;23.292;2023-04-03T02:07:49;3.30;;;2.53;;
9675;SDS011;4876;42.656;23.292;2023-04-03T02:10:15;5.17;;;2.60;;
9675;SDS011;4876;42.656;23.292;2023-04-03T02:12:42;5.57;;;2.73;;
9675;SDS011;4876;42.656;23.292;2023-04-03T02:15:10;3.57;;;2.50;;
9675;SDS011;4876;42.656;23.292;2023-04-03T02:17:37;3.67;;;2.33;;
9675;SDS011;4876;42.656;23.292;2023-04-03T02:20:04;3.70;;;2.30;;
9675;SDS011;4876;42.656;23.292;2023-04-03T02:22:33;4.93;;;2.90;;
9675;SDS011;4876;42.656;23.292;2023-04-03T02:25:02;5.50;;;3.77;;
9675;SDS011;4876;42.656;23.292;2023-04-03T02:27:29;10.50;;;4.37;;
9675;SDS011;4876;42.656;23.292;2023-04-03T02:29:57;11.63;;;4.60;;
9675;SDS011;4876;42.656;23.292;2023-04-03T02:32:24;8.67;;;3.97;;
9675;SDS011;4876;42.656;23.292;2023-04-03T02:34:51;7.10;;;3.80;;
9675;SDS011;4876;42.656;23.292;2023-04-03T02:37:18;4.27;;;3.37;;
9675;SDS011;4876;42.656;23.292;2023-04-03T02:39:44;4.30;;;2.80;;
9675;SDS011;4876;42.656;23.292;2023-04-03T02:42:13;3.60;;;2.80;;
9675;SDS011;4876;42.656;23.292;2023-04-03T02:44:40;5.87;;;3.57;;
9675;SDS011;4876;42.656;23.292;2023-04-03T02:47:06;10.73;;;3.50;;
9675;SDS011;4876;42.656;23.292;2023-04-03T02:49:33;6.93;;;3.13;;
9675;SDS011;4876;42.656;23.292;2023-04-03T02:52:00;5.03;;;2.90;;
9675;SDS011;4876;42.656;23.292;2023-04-03T02:54:27;5.07;;;3.03;;
9675;SDS011;4876;42.656;23.292;2023-04-03T02:56:55;4.87;;;2.77;;
9675;SDS011;4876;42.656;23.292;2023-04-03T02:59:24;6.87;;;3.27;;
9675;SDS011;4876;42.656;23.292;2023-04-03T03:01:51;4.83;;;3.00;;
9675;SDS011;4876;42.656;23.292;2023-04-03T03:04:18;6.40;;;3.73;;
9675;SDS011;4876;42.656;23.292;2023-04-03T03:06:44;4.87;;;3.00;;
9675;SDS011;4876;42.656;23.292;2023-04-03T03:09:11;5.80;;;3.67;;
9675;SDS011;4876;42.656;23.292;2023-04-03T03:11:39;4.73;;;3.40;;
9675;SDS011;4876;42.656;23.292;2023-04-03T03:14:05;6.93;;;4.17;;
9675;SDS011;4876;42.656;23.292;2023-04-03T03:16:34;6.73;;;4.40;;
9675;SDS011;4876;42.656;23.292;2023-04-03T03:19:00;7.60;;;3.67;;
9675;SDS011;4876;42.656;23.292;2023-04-03T03:21:27;9.27;;;4.17;;
9675;SDS011;4876;42.656;23.292;2023-04-03T03:23:54;5.03;;;3.63;;
9675;SDS011;4876;42.656;23.292;2023-04-03T03:26:21;7.73;;;3.53;;
9675;SDS011;4876;42.656;23.292;2023-04-03T03:28:48;7.80;;;3.70;;
9675;SDS011;4876;42.656;23.292;2023-04-03T03:31:15;14.63;;;4.20;;
9675;SDS011;4876;42.656;23.292;2023-04-03T03:33:43;7.33;;;4.03;;
9675;SDS011;4876;42.656;23.292;2023-04-03T03:36:10;10.10;;;4.13;;
9675;SDS011;4876;42.656;23.292;2023-04-03T03:38:37;6.20;;;3.77;;
9675;SDS011;4876;42.656;23.292;2023-04-03T03:41:04;7.63;;;3.83;;
9675;SDS011;4876;42.656;23.292;2023-04-03T03:43:31;6.73;;;3.30;;
9675;SDS011;4876;42.656;23.292;2023-04-03T03:45:58;8.97;;;4.17;;
9675;SDS011;4876;42.656;23.292;2023-04-03T03:48:25;7.10;;;3.77;;
9675;SDS011;4876;42.656;23.292;2023-04-03T03:50:53;5.23;;;3.60;;
9675;SDS011;4876;42.656;23.292;2023-04-03T03:53:20;8.03;;;3.53;;
9675;SDS011;4876;42.656;23.292;2023-04-03T03:55:47;6.87;;;3.67;;
9675;SDS011;4876;42.656;23.292;2023-04-03T03:58:13;9.97;;;4.27;;
9675;SDS011;4876;42.656;23.292;2023-04-03T04:00:40;9.37;;;4.47;;
9675;SDS011;4876;42.656;23.292;2023-04-03T04:03:07;9.10;;;4.17;;
9675;SDS011;4876;42.656;23.292;2023-04-03T04:05:34;11.20;;;4.37;;
9675;SDS011;4876;42.656;23.292;2023-04-03T04:08:02;10.10;;;3.80;;
9675;SDS011;4876;42.656;23.292;2023-04-03T04:10:29;10.07;;;4.17;;
9675;SDS011;4876;42.656;23.292;2023-04-03T04:12:55;8.03;;;3.93;;
9675;SDS011;4876;42.656;23.292;2023-04-03T04:15:22;8.67;;;4.17;;
9675;SDS011;4876;42.656;23.292;2023-04-03T04:17:50;13.23;;;5.40;;
9675;SDS011;4876;42.656;23.292;2023-04-03T04:20:18;10.43;;;4.67;;
9675;SDS011;4876;42.656;23.292;2023-04-03T04:22:45;14.93;;;4.07;;
9675;SDS011;4876;42.656;23.292;2023-04-03T04:25:13;13.73;;;4.43;;
9675;SDS011;4876;42.656;23.292;2023-04-03T04:27:40;8.53;;;5.03;;
9675;SDS011;4876;42.656;23.292;2023-04-03T04:30:07;17.10;;;5.47;;
9675;SDS011;4876;42.656;23.292;2023-04-03T04:32:35;23.00;;;6.33;;
9675;SDS011;4876;42.656;23.292;2023-04-03T04:35:02;22.03;;;5.53;;
9675;SDS011;4876;42.656;23.292;2023-04-03T04:37:30;14.30;;;4.87;;
9675;SDS011;4876;42.656;23.292;2023-04-03T04:39:57;24.83;;;5.60;;
9675;SDS011;4876;42.656;23.292;2023-04-03T04:42:25;12.73;;;5.27;;
9675;SDS011;4876;42.656;23.292;2023-04-03T04:44:52;14.80;;;5.97;;
9675;SDS011;4876;42.656;23.292;2023-04-03T04:47:19;14.60;;;5.03;;
9675;SDS011;4876;42.656;23.292;2023-04-03T04:49:46;26.20;;;5.70;;
9675;SDS011;4876;42.656;23.292;2023-04-03T04:52:13;28.23;;;5.50;;
9675;SDS011;4876;42.656;23.292;2023-04-03T04:54:40;18.40;;;5.43;;
9675;SDS011;4876;42.656;23.292;2023-04-03T04:57:07;23.73;;;5.50;;
9675;SDS011;4876;42.656;23.292;2023-04-03T04:59:35;16.40;;;5.87;;
9675;SDS011;4876;42.656;23.292;2023-04-03T05:02:01;37.17;;;6.67;;
9675;SDS011;4876;42.656;23.292;2023-04-03T05:04:28;16.77;;;6.17;;
9675;SDS011;4876;42.656;23.292;2023-04-03T05:06:55;30.80;;;6.03;;
9675;SDS011;4876;42.656;23.292;2023-04-03T05:09:23;28.67;;;7.33;;
9675;SDS011;4876;42.656;23.292;2023-04-03T05:11:49;22.57;;;7.70;;
9675;SDS011;4876;42.656;23.292;2023-04-03T05:14:16;19.53;;;6.30;;
9675;SDS011;4876;42.656;23.292;2023-04-03T05:16:44;22.73;;;7.17;;
9675;SDS011;4876;42.656;23.292;2023-04-03T05:19:12;34.07;;;7.53;;
9675;SDS011;4876;42.656;23.292;2023-04-03T05:21:39;31.23;;;7.90;;
9675;SDS011;4876;42.656;23.292;2023-04-03T05:24:06;33.07;;;8.57;;
9675;SDS011;4876;42.656;23.292;2023-04-03T05:26:34;24.30;;;6.37;;
9675;SDS011;4876;42.656;23.292;2023-04-03T05:29:01;18.30;;;6.57;;
9675;SDS011;4876;42.656;23.292;2023-04-03T05:31:28;22.10;;;8.83;;
9675;SDS011;4876;42.656;23.292;2023-04-03T05:33:56;18.67;;;8.17;;
9675;SDS011;4876;42.656;23.292;2023-04-03T05:36:23;20.13;;;7.73;;
9675;SDS011;4876;42.656;23.292;2023-04-03T05:38:50;20.30;;;7.27;;
9675;SDS011;4876;42.656;23.292;2023-04-03T05:41:17;18.37;;;7.23;;
9675;SDS011;4876;42.656;23.292;2023-04-03T05:43:45;21.23;;;8.07;;
9675;SDS011;4876;42.656;23.292;2023-04-03T05:46:16;20.60;;;7.30;;
9675;SDS011;4876;42.656;23.292;2023-04-03T05:48:45;24.00;;;7.70;;
9675;SDS011;4876;42.656;23.292;2023-04-03T05:51:19;25.20;;;8.07;;
9675;SDS011;4876;42.656;23.292;2023-04-03T05:54:06;30.60;;;7.37;;
9675;SDS011;4876;42.656;23.292;2023-04-03T05:56:37;19.40;;;8.13;;
9675;SDS011;4876;42.656;23.292;2023-04-03T05:59:04;20.97;;;7.67;;
9675;SDS011;4876;42.656;23.292;2023-04-03T06:01:32;24.03;;;8.27;;
9675;SDS011;4876;42.656;23.292;2023-04-03T06:03:59;19.10;;;8.20;;
9675;SDS011;4876;42.656;23.292;2023-04-03T06:06:27;19.57;;;7.87;;
9675;SDS011;4876;42.656;23.292;2023-04-03T06:09:09;34.70;;;8.50;;
9675;SDS011;4876;42.656;23.292;2023-04-03T06:11:36;13.33;;;7.40;;
9675;SDS011;4876;42.656;23.292;2023-04-03T06:14:04;24.53;;;7.87;;
9675;SDS011;4876;42.656;23.292;2023-04-03T06:16:31;13.33;;;8.30;;
9675;SDS011;4876;42.656;23.292;2023-04-03T06:18:58;21.50;;;9.03;;
9675;SDS011;4876;42.656;23.292;2023-04-03T06:21:25;12.23;;;7.40;;
9675;SDS011;4876;42.656;23.292;2023-04-03T06:23:54;20.37;;;6.73;;
9675;SDS011;4876;42.656;23.292;2023-04-03T06:26:21;13.50;;;7.60;;
9675;SDS011;4876;42.656;23.292;2023-04-03T06:28:47;11.77;;;8.27;;
9675;SDS011;4876;42.656;23.292;2023-04-03T06:31:14;11.13;;;7.20;;
9675;SDS011;4876;42.656;23.292;2023-04-03T06:33:42;23.57;;;9.73;;
9675;SDS011;4876;42.656;23.292;2023-04-03T06:36:09;22.60;;;8.60;;
9675;SDS011;4876;42.656;23.292;2023-04-03T06:38:39;19.80;;;8.87;;
9675;SDS011;4876;42.656;23.292;2023-04-03T06:41:06;10.73;;;8.17;;
9675;SDS011;4876;42.656;23.292;2023-04-03T06:43:32;21.37;;;8.53;;
9675;SDS011;4876;42.656;23.292;2023-04-03T06:45:59;13.53;;;8.50;;
9675;SDS011;4876;42.656;23.292;2023-04-03T06:48:26;15.17;;;10.00;;
9675;SDS011;4876;42.656;23.292;2023-04-03T06:50:53;21.63;;;10.57;;
9675;SDS011;4876;42.656;23.292;2023-04-03T06:53:20;14.60;;;9.30;;
9675;SDS011;4876;42.656;23.292;2023-04-03T06:55:48;15.50;;;8.63;;
9675;SDS011;4876;42.656;23.292;2023-04-03T06:58:15;23.03;;;10.10;;
9675;SDS011;4876;42.656;23.292;2023-04-03T07:00:42;20.07;;;9.93;;
9675;SDS011;4876;42.656;23.292;2023-04-03T07:03:09;13.70;;;8.30;;
9675;SDS011;4876;42.656;23.292;2023-04-03T07:05:36;9.47;;;7.13;;
9675;SDS011;4876;42.656;23.292;2023-04-03T07:08:03;14.90;;;7.77;;
9675;SDS011;4876;42.656;23.292;2023-04-03T07:10:30;13.30;;;7.87;;
9675;SDS011;4876;42.656;23.292;2023-04-03T07:12:59;16.73;;;8.73;;
9675;SDS011;4876;42.656;23.292;2023-04-03T07:15:26;15.57;;;8.73;;
9675;SDS011;4876;42.656;23.292;2023-04-03T07:18:00;14.53;;;9.00;;
9675;SDS011;4876;42.656;23.292;2023-04-03T07:20:26;11.33;;;8.70;;
9675;SDS011;4876;42.656;23.292;2023-04-03T07:22:53;16.33;;;8.50;;
9675;SDS011;4876;42.656;23.292;2023-04-03T07:25:20;19.30;;;10.13;;
9675;SDS011;4876;42.656;23.292;2023-04-03T07:27:47;25.33;;;9.83;;
9675;SDS011;4876;42.656;23.292;2023-04-03T07:30:15;26.30;;;9.97;;
9675;SDS011;4876;42.656;23.292;2023-04-03T07:32:42;21.57;;;9.70;;
9675;SDS011;4876;42.656;23.292;2023-04-03T07:35:09;14.70;;;7.83;;
9675;SDS011;4876;42.656;23.292;2023-04-03T07:37:36;9.73;;;5.80;;
9675;SDS011;4876;42.656;23.292;2023-04-03T07:40:03;12.00;;;6.10;;
9675;SDS011;4876;42.656;23.292;2023-04-03T07:42:31;13.83;;;5.47;;
9675;SDS011;4876;42.656;23.292;2023-04-03T07:44:59;9.23;;;5.73;;
9675;SDS011;4876;42.656;23.292;2023-04-03T07:47:27;10.57;;;4.67;;
9675;SDS011;4876;42.656;23.292;2023-04-03T07:49:53;13.63;;;5.23;;
9675;SDS011;4876;42.656;23.292;2023-04-03T07:52:22;10.37;;;4.90;;
9675;SDS011;4876;42.656;23.292;2023-04-03T07:54:49;9.70;;;4.93;;
9675;SDS011;4876;42.656;23.292;2023-04-03T07:57:16;8.13;;;4.10;;
9675;SDS011;4876;42.656;23.292;2023-04-03T07:59:42;10.23;;;4.73;;
9675;SDS011;4876;42.656;23.292;2023-04-03T08:02:09;7.40;;;4.77;;
9675;SDS011;4876;42.656;23.292;2023-04-03T08:04:38;7.50;;;3.53;;
9675;SDS011;4876;42.656;23.292;2023-04-03T08:07:05;13.93;;;4.37;;
9675;SDS011;4876;42.656;23.292;2023-04-03T08:09:32;6.97;;;3.90;;
9675;SDS011;4876;42.656;23.292;2023-04-03T08:11:58;9.33;;;3.87;;
9675;SDS011;4876;42.656;23.292;2023-04-03T08:14:26;10.83;;;3.83;;
9675;SDS011;4876;42.656;23.292;2023-04-03T08:16:54;6.77;;;4.47;;
9675;SDS011;4876;42.656;23.292;2023-04-03T08:19:21;10.23;;;4.50;;
9675;SDS011;4876;42.656;23.292;2023-04-03T08:21:49;7.97;;;5.00;;
9675;SDS011;4876;42.656;23.292;2023-04-03T08:24:16;7.80;;;5.17;;
9675;SDS011;4876;42.656;23.292;2023-04-03T08:26:43;10.37;;;5.77;;
9675;SDS011;4876;42.656;23.292;2023-04-03T08:29:09;7.17;;;6.00;;
9675;SDS011;4876;42.656;23.292;2023-04-03T08:31:36;13.27;;;6.40;;
9675;SDS011;4876;42.656;23.292;2023-04-03T08:34:04;12.40;;;6.20;;
9675;SDS011;4876;42.656;23.292;2023-04-03T08:36:31;12.97;;;7.13;;
9675;SDS011;4876;42.656;23.292;2023-04-03T08:38:59;10.33;;;6.03;;
9675;SDS011;4876;42.656;23.292;2023-04-03T08:41:29;7.93;;;6.57;;
9675;SDS011;4876;42.656;23.292;2023-04-03T08:44:18;10.83;;;6.80;;
9675;SDS011;4876;42.656;23.292;2023-04-03T08:49:45;14.30;;;7.83;;
9675;SDS011;4876;42.656;23.292;2023-04-03T08:52:19;14.30;;;8.70;;
9675;SDS011;4876;42.656;23.292;2023-04-03T08:54:54;19.63;;;8.20;;
9675;SDS011;4876;42.656;23.292;2023-04-03T08:57:27;22.37;;;10.33;;
9675;SDS011;4876;42.656;23.292;2023-04-03T08:59:57;18.73;;;10.70;;
9675;SDS011;4876;42.656;23.292;2023-04-03T09:16:35;14.37;;;9.67;;
9675;SDS011;4876;42.656;23.292;2023-04-03T09:19:09;18.53;;;8.20;;
9675;SDS011;4876;42.656;23.292;2023-04-03T09:21:42;15.63;;;8.77;;
9675;SDS011;4876;42.656;23.292;2023-04-03T09:24:09;16.23;;;7.80;;
9675;SDS011;4876;42.656;23.292;2023-04-03T09:26:40;17.23;;;6.93;;
9675;SDS011;4876;42.656;23.292;2023-04-03T09:29:14;7.20;;;5.30;;
9675;SDS011;4876;42.656;23.292;2023-04-03T09:31:47;15.73;;;4.87;;
9675;SDS011;4876;42.656;23.292;2023-04-03T09:34:18;11.30;;;4.60;;
9675;SDS011;4876;42.656;23.292;2023-04-03T09:36:49;5.60;;;4.07;;
9675;SDS011;4876;42.656;23.292;2023-04-03T09:39:18;5.80;;;3.10;;
9675;SDS011;4876;42.656;23.292;2023-04-03T09:41:59;3.50;;;2.73;;
9675;SDS011;4876;42.656;23.292;2023-04-03T09:44:29;3.13;;;1.93;;
9675;SDS011;4876;42.656;23.292;2023-04-03T09:46:59;6.03;;;2.03;;
9675;SDS011;4876;42.656;23.292;2023-04-03T09:49:26;2.20;;;1.80;;
9675;SDS011;4876;42.656;23.292;2023-04-03T09:51:52;1.93;;;1.53;;
9675;SDS011;4876;42.656;23.292;2023-04-03T09:57:08;3.40;;;1.37;;
9675;SDS011;4876;42.656;23.292;2023-04-03T09:59:38;3.33;;;1.40;;
9675;SDS011;4876;42.656;23.292;2023-04-03T10:02:22;1.80;;;1.57;;
9675;SDS011;4876;42.656;23.292;2023-04-03T10:04:57;4.40;;;2.00;;
9675;SDS011;4876;42.656;23.292;2023-04-03T10:07:31;5.27;;;1.30;;
9675;SDS011;4876;42.656;23.292;2023-04-03T10:10:01;4.97;;;1.70;;
9675;SDS011;4876;42.656;23.292;2023-04-03T10:12:42;1.47;;;1.37;;
9675;SDS011;4876;42.656;23.292;2023-04-03T10:15:11;3.33;;;1.80;;
9675;SDS011;4876;42.656;23.292;2023-04-03T10:17:46;1.90;;;1.70;;
9675;SDS011;4876;42.656;23.292;2023-04-03T10:20:25;5.93;;;1.90;;
9675;SDS011;4876;42.656;23.292;2023-04-03T10:23:00;2.43;;;1.43;;
9675;SDS011;4876;42.656;23.292;2023-04-03T10:25:40;7.80;;;2.20;;
9675;SDS011;4876;42.656;23.292;2023-04-03T10:28:11;3.87;;;2.00;;
9675;SDS011;4876;42.656;23.292;2023-04-03T10:30:49;2.60;;;1.60;;
9675;SDS011;4876;42.656;23.292;2023-04-03T10:33:27;5.50;;;2.03;;
9675;SDS011;4876;42.656;23.292;2023-04-03T10:36:07;8.13;;;1.73;;
9675;SDS011;4876;42.656;23.292;2023-04-03T10:38:43;8.40;;;2.50;;
9675;SDS011;4876;42.656;23.292;2023-04-03T10:41:20;5.33;;;2.20;;
9675;SDS011;4876;42.656;23.292;2023-04-03T10:43:57;4.50;;;2.33;;
9675;SDS011;4876;42.656;23.292;2023-04-03T10:46:36;4.10;;;2.00;;
9675;SDS011;4876;42.656;23.292;2023-04-03T10:49:16;4.27;;;2.20;;
9675;SDS011;4876;42.656;23.292;2023-04-03T10:51:53;2.10;;;1.70;;
9675;SDS011;4876;42.656;23.292;2023-04-03T10:54:29;5.00;;;2.23;;
9675;SDS011;4876;42.656;23.292;2023-04-03T10:57:01;4.37;;;1.80;;
9675;SDS011;4876;42.656;23.292;2023-04-03T10:59:30;3.83;;;2.20;;
9675;SDS011;4876;42.656;23.292;2023-04-03T11:01:59;5.27;;;1.97;;
9675;SDS011;4876;42.656;23.292;2023-04-03T11:04:33;4.13;;;1.80;;
9675;SDS011;4876;42.656;23.292;2023-04-03T11:07:04;1.97;;;1.63;;
9675;SDS011;4876;42.656;23.292;2023-04-03T11:09:37;4.03;;;1.80;;
9675;SDS011;4876;42.656;23.292;2023-04-03T11:12:10;3.23;;;1.90;;
9675;SDS011;4876;42.656;23.292;2023-04-03T11:14:41;2.27;;;2.03;;
9675;SDS011;4876;42.656;23.292;2023-04-03T11:17:15;2.40;;;2.03;;
9675;SDS011;4876;42.656;23.292;2023-04-03T11:19:52;1.53;;;1.43;;
9675;SDS011;4876;42.656;23.292;2023-04-03T11:22:28;3.40;;;2.50;;
9675;SDS011;4876;42.656;23.292;2023-04-03T11:24:59;6.77;;;3.37;;
9675;SDS011;4876;42.656;23.292;2023-04-03T11:27:34;4.10;;;3.10;;
9675;SDS011;4876;42.656;23.292;2023-04-03T11:30:07;3.03;;;2.13;;
9675;SDS011;4876;42.656;23.292;2023-04-03T11:35:33;4.83;;;3.50;;
9675;SDS011;4876;42.656;23.292;2023-04-03T11:38:01;6.50;;;3.90;;
9675;SDS011;4876;42.656;23.292;2023-04-03T11:40:32;5.17;;;4.17;;
9675;SDS011;4876;42.656;23.292;2023-04-03T11:43:05;4.43;;;3.50;;
9675;SDS011;4876;42.656;23.292;2023-04-03T11:45:35;6.57;;;4.37;;
9675;SDS011;4876;42.656;23.292;2023-04-03T11:48:05;5.30;;;3.43;;
9675;SDS011;4876;42.656;23.292;2023-04-03T11:50:44;3.60;;;3.30;;
9675;SDS011;4876;42.656;23.292;2023-04-03T11:53:29;4.83;;;3.77;;
9675;SDS011;4876;42.656;23.292;2023-04-03T11:56:06;6.37;;;3.90;;
9675;SDS011;4876;42.656;23.292;2023-04-03T12:01:52;3.63;;;3.00;;
9675;SDS011;4876;42.656;23.292;2023-04-03T12:04:21;4.83;;;4.00;;
9675;SDS011;4876;42.656;23.292;2023-04-03T12:07:01;7.30;;;4.37;;
9675;SDS011;4876;42.656;23.292;2023-04-03T12:12:30;3.27;;;2.60;;
9675;SDS011;4876;42.656;23.292;2023-04-03T12:17:49;6.33;;;2.60;;
9675;SDS011;4876;42.656;23.292;2023-04-03T12:23:26;5.90;;;3.20;;
9675;SDS011;4876;42.656;23.292;2023-04-03T12:25:59;5.30;;;3.07;;
9675;SDS011;4876;42.656;23.292;2023-04-03T12:28:48;4.10;;;3.70;;
9675;SDS011;4876;42.656;23.292;2023-04-03T12:31:17;5.73;;;3.47;;
9675;SDS011;4876;42.656;23.292;2023-04-03T12:33:59;3.37;;;3.07;;
9675;SDS011;4876;42.656;23.292;2023-04-03T12:36:38;3.93;;;2.60;;
9675;SDS011;4876;42.656;23.292;2023-04-03T12:42:19;5.03;;;3.00;;
9675;SDS011;4876;42.656;23.292;2023-04-03T12:44:58;4.80;;;3.17;;
9675;SDS011;4876;42.656;23.292;2023-04-03T12:47:29;4.47;;;3.43;;
9675;SDS011;4876;42.656;23.292;2023-04-03T12:50:02;5.23;;;4.27;;
9675;SDS011;4876;42.656;23.292;2023-04-03T12:52:35;5.40;;;4.40;;
9675;SDS011;4876;42.656;23.292;2023-04-03T12:55:15;9.20;;;4.13;;
9675;SDS011;4876;42.656;23.292;2023-04-03T12:57:42;7.20;;;4.97;;
9675;SDS011;4876;42.656;23.292;2023-04-03T13:00:28;8.53;;;5.37;;
9675;SDS011;4876;42.656;23.292;2023-04-03T13:03:00;7.20;;;4.80;;
9675;SDS011;4876;42.656;23.292;2023-04-03T13:05:29;9.50;;;4.30;;
9675;SDS011;4876;42.656;23.292;2023-04-03T13:07:58;8.77;;;5.67;;
9675;SDS011;4876;42.656;23.292;2023-04-03T13:10:28;8.27;;;4.60;;
9675;SDS011;4876;42.656;23.292;2023-04-03T13:12:57;4.80;;;4.27;;
9675;SDS011;4876;42.656;23.292;2023-04-03T13:15:40;7.63;;;4.73;;
9675;SDS011;4876;42.656;23.292;2023-04-03T13:18:20;10.83;;;5.10;;
9675;SDS011;4876;42.656;23.292;2023-04-03T13:20:52;6.80;;;4.43;;
9675;SDS011;4876;42.656;23.292;2023-04-03T13:23:23;8.67;;;4.93;;
9675;SDS011;4876;42.656;23.292;2023-04-03T13:25:52;11.20;;;6.50;;
9675;SDS011;4876;42.656;23.292;2023-04-03T13:28:20;8.13;;;5.50;;
9675;SDS011;4876;42.656;23.292;2023-04-03T13:30:57;10.57;;;6.63;;
9675;SDS011;4876;42.656;23.292;2023-04-03T13:33:28;7.97;;;6.17;;
9675;SDS011;4876;42.656;23.292;2023-04-03T13:35:59;8.37;;;5.90;;
9675;SDS011;4876;42.656;23.292;2023-04-03T13:38:30;7.03;;;5.17;;
9675;SDS011;4876;42.656;23.292;2023-04-03T13:41:04;5.80;;;4.80;;
9675;SDS011;4876;42.656;23.292;2023-04-03T13:43:48;6.53;;;4.13;;
9675;SDS011;4876;42.656;23.292;2023-04-03T13:46:22;8.83;;;5.47;;
9675;SDS011;4876;42.656;23.292;2023-04-03T13:48:53;8.43;;;5.43;;
9675;SDS011;4876;42.656;23.292;2023-04-03T13:51:23;7.33;;;4.50;;
9675;SDS011;4876;42.656;23.292;2023-04-03T13:53:53;10.37;;;4.10;;
9675;SDS011;4876;42.656;23.292;2023-04-03T13:56:34;5.70;;;3.87;;
9675;SDS011;4876;42.656;23.292;2023-04-03T13:59:05;3.33;;;2.60;;
9675;SDS011;4876;42.656;23.292;2023-04-03T14:01:50;3.60;;;2.87;;
9675;SDS011;4876;42.656;23.292;2023-04-03T14:04:20;5.07;;;2.70;;
9675;SDS011;4876;42.656;23.292;2023-04-03T14:06:48;4.30;;;2.70;;
9675;SDS011;4876;42.656;23.292;2023-04-03T14:09:16;6.43;;;3.30;;
9675;SDS011;4876;42.656;23.292;2023-04-03T14:11:47;6.37;;;3.33;;
9675;SDS011;4876;42.656;23.292;2023-04-03T14:14:16;6.43;;;4.03;;
9675;SDS011;4876;42.656;23.292;2023-04-03T14:16:46;10.33;;;6.53;;
9675;SDS011;4876;42.656;23.292;2023-04-03T14:19:20;9.87;;;5.83;;
9675;SDS011;4876;42.656;23.292;2023-04-03T14:21:50;7.10;;;4.83;;
9675;SDS011;4876;42.656;23.292;2023-04-03T14:24:19;5.93;;;3.50;;
9675;SDS011;4876;42.656;23.292;2023-04-03T14:26:48;4.10;;;3.00;;
9675;SDS011;4876;42.656;23.292;2023-04-03T14:29:15;6.03;;;3.93;;
9675;SDS011;4876;42.656;23.292;2023-04-03T14:31:43;5.60;;;3.73;;
9675;SDS011;4876;42.656;23.292;2023-04-03T14:34:10;5.67;;;4.17;;
9675;SDS011;4876;42.656;23.292;2023-04-03T14:36:38;7.17;;;3.10;;
9675;SDS011;4876;42.656;23.292;2023-04-03T14:39:07;4.47;;;3.20;;
9675;SDS011;4876;42.656;23.292;2023-04-03T14:41:37;2.53;;;2.17;;
9675;SDS011;4876;42.656;23.292;2023-04-03T14:44:05;6.50;;;4.03;;
9675;SDS011;4876;42.656;23.292;2023-04-03T14:46:33;2.57;;;2.37;;
9675;SDS011;4876;42.656;23.292;2023-04-03T14:49:02;2.90;;;2.10;;
9675;SDS011;4876;42.656;23.292;2023-04-03T14:51:32;2.43;;;2.23;;
9675;SDS011;4876;42.656;23.292;2023-04-03T14:53:59;3.20;;;2.23;;
9675;SDS011;4876;42.656;23.292;2023-04-03T14:56:28;4.60;;;2.43;;
9675;SDS011;4876;42.656;23.292;2023-04-03T14:58:57;3.77;;;3.30;;
9675;SDS011;4876;42.656;23.292;2023-04-03T15:01:27;3.23;;;2.23;;
9675;SDS011;4876;42.656;23.292;2023-04-03T15:03:54;2.73;;;2.10;;
9675;SDS011;4876;42.656;23.292;2023-04-03T15:06:21;2.13;;;1.87;;
9675;SDS011;4876;42.656;23.292;2023-04-03T15:08:48;3.67;;;2.80;;
9675;SDS011;4876;42.656;23.292;2023-04-03T15:11:15;4.60;;;3.33;;
9675;SDS011;4876;42.656;23.292;2023-04-03T15:13:44;5.67;;;3.73;;
9675;SDS011;4876;42.656;23.292;2023-04-03T15:16:15;4.73;;;3.43;;
9675;SDS011;4876;42.656;23.292;2023-04-03T15:19:11;3.87;;;3.00;;
9675;SDS011;4876;42.656;23.292;2023-04-03T15:21:39;4.10;;;3.07;;
9675;SDS011;4876;42.656;23.292;2023-04-03T15:24:06;3.17;;;2.70;;
9675;SDS011;4876;42.656;23.292;2023-04-03T15:26:34;2.50;;;2.30;;
9675;SDS011;4876;42.656;23.292;2023-04-03T15:29:01;2.33;;;1.97;;
9675;SDS011;4876;42.656;23.292;2023-04-03T15:31:31;4.67;;;2.77;;
9675;SDS011;4876;42.656;23.292;2023-04-03T15:34:01;3.97;;;2.93;;
9675;SDS011;4876;42.656;23.292;2023-04-03T15:36:29;4.63;;;3.40;;
9675;SDS011;4876;42.656;23.292;2023-04-03T15:38:55;3.00;;;2.70;;
9675;SDS011;4876;42.656;23.292;2023-04-03T15:41:22;4.93;;;3.03;;
9675;SDS011;4876;42.656;23.292;2023-04-03T15:43:49;9.13;;;2.77;;
9675;SDS011;4876;42.656;23.292;2023-04-03T15:46:16;7.30;;;2.87;;
9675;SDS011;4876;42.656;23.292;2023-04-03T15:48:44;4.37;;;3.70;;
9675;SDS011;4876;42.656;23.292;2023-04-03T15:51:11;6.43;;;3.10;;